Time;durP1;ratioP1;P1;durP2;ratioP2;P2;SDS_P1;SDS_P2;PMS_P1;PMS_P2;Temp;Humidity;BMP_temperature;BMP_pressure;BME280_temperature;BME280_humidity;BME280_pressure;Samples;Min_cycle;Max_cycle;Signal;HPM_P1;HPM_P2
2021/04/24 00:00:29;;;;;;;2.58;1.38;;;;;;;;;;5020371;28;20395;-73
2021/04/24 00:02:55;;;;;;;2.55;1.30;;;;;;;;;;5018863;28;20496;-72
2021/04/24 00:05:28;;;;;;;4.70;1.90;;;;;;;;;;5018593;28;20036;-73
2021/04/24 00:07:55;;;;;;;4.43;1.63;;;;;;;;;;5015093;28;20061;-73
2021/04/24 00:10:22;;;;;;;3.75;1.48;;;;;;;;;;5021015;28;20043;-73
2021/04/24 00:12:48;;;;;;;2.10;1.35;;;;;;;;;;5020685;28;20037;-73
2021/04/24 00:15:15;;;;;;;5.32;1.70;;;;;;;;;;5010120;28;20392;-74
2021/04/24 00:17:41;;;;;;;3.15;1.55;;;;;;;;;;5019681;28;20053;-73
2021/04/24 00:20:08;;;;;;;5.88;1.40;;;;;;;;;;5017502;28;20036;-73
2021/04/24 00:22:34;;;;;;;1.95;1.38;;;;;;;;;;5019335;28;20037;-72
2021/04/24 00:25:00;;;;;;;5.50;2.00;;;;;;;;;;5020370;28;20030;-73
2021/04/24 00:27:26;;;;;;;2.92;1.55;;;;;;;;;;5018659;28;20028;-73
2021/04/24 00:29:52;;;;;;;4.18;1.50;;;;;;;;;;5013147;28;20029;-73
2021/04/24 00:32:18;;;;;;;4.15;1.77;;;;;;;;;;5023437;28;20120;-73
2021/04/24 00:34:44;;;;;;;3.40;1.60;;;;;;;;;;5021695;28;20576;-73
2021/04/24 00:37:10;;;;;;;6.45;1.45;;;;;;;;;;5026807;28;20113;-73
2021/04/24 00:39:36;;;;;;;8.50;1.67;;;;;;;;;;5013099;28;20045;-73
2021/04/24 00:42:02;;;;;;;3.08;1.55;;;;;;;;;;5022705;28;20026;-73
2021/04/24 00:44:28;;;;;;;4.88;1.20;;;;;;;;;;5012781;28;20037;-73
2021/04/24 00:46:54;;;;;;;3.35;1.60;;;;;;;;;;5016058;28;20108;-73
2021/04/24 00:49:20;;;;;;;3.65;1.48;;;;;;;;;;5016254;28;20027;-73
2021/04/24 00:51:46;;;;;;;2.45;1.38;;;;;;;;;;5021610;28;20132;-73
2021/04/24 00:54:12;;;;;;;2.75;1.40;;;;;;;;;;5010107;28;20030;-73
2021/04/24 00:56:38;;;;;;;5.13;1.60;;;;;;;;;;5015540;28;20041;-74
2021/04/24 00:59:04;;;;;;;5.53;1.80;;;;;;;;;;5026882;28;20108;-73
2021/04/24 01:01:30;;;;;;;5.28;1.88;;;;;;;;;;5023666;28;20123;-73
2021/04/24 01:03:56;;;;;;;5.68;1.55;;;;;;;;;;5011469;28;20033;-74
2021/04/24 01:06:22;;;;;;;4.75;1.60;;;;;;;;;;5013997;28;20069;-73
2021/04/24 01:08:48;;;;;;;2.63;1.52;;;;;;;;;;5014705;28;20079;-73
2021/04/24 01:11:14;;;;;;;3.35;1.60;;;;;;;;;;5019081;28;20440;-73
2021/04/24 01:13:40;;;;;;;3.40;1.92;;;;;;;;;;5017991;28;20041;-73
2021/04/24 01:16:06;;;;;;;4.55;1.83;;;;;;;;;;5015246;28;20025;-73
2021/04/24 01:18:32;;;;;;;5.28;1.70;;;;;;;;;;5018058;28;20103;-73
2021/04/24 01:20:58;;;;;;;7.55;2.33;;;;;;;;;;5016195;28;20040;-73
2021/04/24 01:23:25;;;;;;;4.65;1.35;;;;;;;;;;5024882;28;20049;-73
2021/04/24 01:25:51;;;;;;;7.07;2.65;;;;;;;;;;5017653;28;20053;-74
2021/04/24 01:28:17;;;;;;;4.40;1.60;;;;;;;;;;5022223;28;20785;-73
2021/04/24 01:30:44;;;;;;;4.20;1.55;;;;;;;;;;5022668;28;20034;-73
2021/04/24 01:33:11;;;;;;;3.05;1.38;;;;;;;;;;5019978;28;20109;-73
2021/04/24 01:35:39;;;;;;;5.68;1.95;;;;;;;;;;5017097;28;20057;-74
2021/04/24 01:38:05;;;;;;;8.43;1.90;;;;;;;;;;5023850;28;20033;-73
2021/04/24 01:40:31;;;;;;;15.65;2.17;;;;;;;;;;5024611;28;20021;-74
2021/04/24 01:42:57;;;;;;;3.83;1.73;;;;;;;;;;5019266;28;20049;-74
2021/04/24 01:45:24;;;;;;;7.43;2.03;;;;;;;;;;5013895;28;20018;-74
2021/04/24 01:47:50;;;;;;;4.22;1.40;;;;;;;;;;5025232;28;20029;-74
2021/04/24 01:50:27;;;;;;;3.33;1.88;;;;;;;;;;5022747;28;20052;-73
2021/04/24 01:52:53;;;;;;;8.88;1.98;;;;;;;;;;5015351;28;20033;-74
2021/04/24 01:55:21;;;;;;;5.00;2.03;;;;;;;;;;5010853;28;20044;-73
2021/04/24 01:57:48;;;;;;;5.75;2.10;;;;;;;;;;5013187;28;20029;-73
2021/04/24 02:00:25;;;;;;;5.57;2.33;;;;;;;;;;5024810;28;20034;-73
2021/04/24 02:02:53;;;;;;;7.40;2.20;;;;;;;;;;5025274;28;20093;-73
2021/04/24 02:05:19;;;;;;;2.35;1.55;;;;;;;;;;5021844;28;20037;-73
2021/04/24 02:07:55;;;;;;;9.57;1.90;;;;;;;;;;5023476;28;20032;-73
2021/04/24 02:10:22;;;;;;;11.02;2.00;;;;;;;;;;5023486;28;20083;-74
2021/04/24 02:12:48;;;;;;;2.70;1.40;;;;;;;;;;5020584;28;20029;-73
2021/04/24 02:15:14;;;;;;;5.05;1.92;;;;;;;;;;5022979;28;20030;-73
2021/04/24 02:17:40;;;;;;;10.13;2.05;;;;;;;;;;5012852;28;20037;-74
2021/04/24 02:20:06;;;;;;;15.77;2.08;;;;;;;;;;5023197;28;20392;-73
2021/04/24 02:22:32;;;;;;;10.18;2.63;;;;;;;;;;5023231;28;20435;-74
2021/04/24 02:24:59;;;;;;;9.35;2.50;;;;;;;;;;5014937;28;20083;-74
2021/04/24 02:27:26;;;;;;;5.80;2.53;;;;;;;;;;5028679;28;20018;-73
2021/04/24 02:29:54;;;;;;;7.43;1.67;;;;;;;;;;5012792;28;20030;-73
2021/04/24 02:32:22;;;;;;;7.20;2.28;;;;;;;;;;5020663;28;20022;-73
2021/04/24 02:34:48;;;;;;;6.97;2.33;;;;;;;;;;5023801;28;20178;-73
2021/04/24 02:37:15;;;;;;;4.63;2.15;;;;;;;;;;5021953;28;20041;-73
2021/04/24 02:39:42;;;;;;;8.60;2.00;;;;;;;;;;5013374;28;20030;-74
2021/04/24 02:42:10;;;;;;;6.72;2.42;;;;;;;;;;5022799;28;20037;-73
2021/04/24 02:44:36;;;;;;;9.80;3.17;;;;;;;;;;5016877;28;20030;-73
2021/04/24 02:47:03;;;;;;;12.43;1.92;;;;;;;;;;5019632;28;20040;-72
2021/04/24 02:49:28;;;;;;;3.47;1.90;;;;;;;;;;5032248;28;20146;-73
2021/04/24 02:51:55;;;;;;;5.50;2.20;;;;;;;;;;5019535;28;20045;-73
2021/04/24 02:54:21;;;;;;;18.52;1.67;;;;;;;;;;5014101;28;20037;-73
2021/04/24 02:56:47;;;;;;;2.67;1.70;;;;;;;;;;5019851;28;20026;-73
2021/04/24 02:59:14;;;;;;;7.57;2.10;;;;;;;;;;5014989;28;20034;-73
2021/04/24 03:01:40;;;;;;;8.30;2.38;;;;;;;;;;5021786;28;20030;-74
2021/04/24 03:04:06;;;;;;;5.25;1.98;;;;;;;;;;5027863;28;20052;-73
2021/04/24 03:06:32;;;;;;;3.05;2.10;;;;;;;;;;5036764;28;20029;-74
2021/04/24 03:08:58;;;;;;;5.05;2.08;;;;;;;;;;5020024;28;20481;-74
2021/04/24 03:11:23;;;;;;;4.57;1.95;;;;;;;;;;5026183;28;20532;-74
2021/04/24 03:13:49;;;;;;;5.13;1.95;;;;;;;;;;5020250;28;20030;-73
2021/04/24 03:16:15;;;;;;;5.82;2.20;;;;;;;;;;5025711;28;20033;-74
2021/04/24 03:18:42;;;;;;;4.90;2.05;;;;;;;;;;5025971;28;20037;-73
2021/04/24 03:21:08;;;;;;;6.38;2.20;;;;;;;;;;5019143;28;20033;-73
2021/04/24 03:23:34;;;;;;;8.40;1.90;;;;;;;;;;5021737;28;20503;-74
2021/04/24 03:26:00;;;;;;;3.25;1.75;;;;;;;;;;5023561;28;20029;-73
2021/04/24 03:28:26;;;;;;;5.43;2.05;;;;;;;;;;5024084;28;20072;-73
2021/04/24 03:30:52;;;;;;;6.68;2.60;;;;;;;;;;5024222;28;20484;-73
2021/04/24 03:33:18;;;;;;;9.38;1.95;;;;;;;;;;5024940;28;20060;-73
2021/04/24 03:35:44;;;;;;;8.60;2.40;;;;;;;;;;5029789;28;20038;-73
2021/04/24 03:38:10;;;;;;;4.30;1.90;;;;;;;;;;5025967;28;20040;-74
2021/04/24 03:40:36;;;;;;;5.47;2.15;;;;;;;;;;5028129;28;20033;-74
2021/04/24 03:43:01;;;;;;;6.28;2.10;;;;;;;;;;5017128;28;20029;-73
2021/04/24 03:45:27;;;;;;;9.02;2.65;;;;;;;;;;5022552;28;20502;-73
2021/04/24 03:47:54;;;;;;;7.88;2.40;;;;;;;;;;5025883;28;20036;-73
2021/04/24 03:50:21;;;;;;;10.85;2.55;;;;;;;;;;5027861;28;20045;-74
2021/04/24 03:52:47;;;;;;;6.50;2.58;;;;;;;;;;5022908;28;20255;-73
2021/04/24 03:55:14;;;;;;;10.60;2.03;;;;;;;;;;5011907;28;20040;-73
2021/04/24 03:57:40;;;;;;;8.90;2.42;;;;;;;;;;5023749;28;20033;-74
2021/04/24 04:00:07;;;;;;;6.32;2.40;;;;;;;;;;5014241;28;20496;-74
2021/04/24 04:02:55;;;;;;;5.07;2.20;;;;;;;;;;5022378;28;20461;-73
2021/04/24 04:05:21;;;;;;;6.80;2.00;;;;;;;;;;5027845;28;20037;-73
2021/04/24 04:07:47;;;;;;;16.02;2.25;;;;;;;;;;5018103;28;20571;-73
2021/04/24 04:10:14;;;;;;;5.63;2.75;;;;;;;;;;5017375;28;20559;-73
2021/04/24 04:12:40;;;;;;;8.45;3.03;;;;;;;;;;5022810;28;20176;-72
2021/04/24 04:15:08;;;;;;;3.88;1.98;;;;;;;;;;5021874;28;20404;-74
2021/04/24 04:17:34;;;;;;;7.40;2.22;;;;;;;;;;5019885;28;20096;-73
2021/04/24 04:20:00;;;;;;;3.80;2.38;;;;;;;;;;5024417;28;20037;-73
2021/04/24 04:22:26;;;;;;;6.38;2.55;;;;;;;;;;5025425;28;20377;-73
2021/04/24 04:24:52;;;;;;;11.85;2.83;;;;;;;;;;5026415;28;20033;-73
2021/04/24 04:27:18;;;;;;;7.55;3.10;;;;;;;;;;5021072;28;20562;-73
2021/04/24 04:29:44;;;;;;;4.68;2.00;;;;;;;;;;5021891;28;20057;-73
2021/04/24 04:32:10;;;;;;;8.35;2.97;;;;;;;;;;5022798;28;20108;-73
2021/04/24 04:34:36;;;;;;;5.85;2.75;;;;;;;;;;5018988;28;20536;-73
2021/04/24 04:37:02;;;;;;;7.07;2.72;;;;;;;;;;5029031;28;20025;-73
2021/04/24 04:39:29;;;;;;;9.52;3.10;;;;;;;;;;5022655;28;20042;-74
2021/04/24 04:41:55;;;;;;;4.40;2.20;;;;;;;;;;5026374;28;20032;-73
2021/04/24 04:44:20;;;;;;;7.05;2.97;;;;;;;;;;5022695;28;20025;-73
2021/04/24 04:46:46;;;;;;;10.57;2.67;;;;;;;;;;5027460;28;20029;-73
2021/04/24 04:49:12;;;;;;;5.88;2.55;;;;;;;;;;5021984;28;20065;-73
2021/04/24 04:51:38;;;;;;;9.07;3.35;;;;;;;;;;5017199;28;20112;-73
2021/04/24 04:54:04;;;;;;;8.27;2.78;;;;;;;;;;5010038;28;20029;-74
2021/04/24 04:56:30;;;;;;;7.05;2.88;;;;;;;;;;5020243;28;20022;-73
2021/04/24 04:58:56;;;;;;;9.25;2.63;;;;;;;;;;5001319;28;20022;-73
2021/04/24 05:01:22;;;;;;;6.93;2.88;;;;;;;;;;5022263;28;20080;-74
2021/04/24 05:03:48;;;;;;;9.20;3.08;;;;;;;;;;5019356;28;20029;-73
2021/04/24 05:06:14;;;;;;;5.93;2.80;;;;;;;;;;5016548;28;20439;-73
2021/04/24 05:08:40;;;;;;;8.18;2.97;;;;;;;;;;5025771;28;20022;-73
2021/04/24 05:11:06;;;;;;;7.22;2.70;;;;;;;;;;5019379;28;20418;-73
2021/04/24 05:13:32;;;;;;;11.25;3.13;;;;;;;;;;5017259;28;20033;-73
2021/04/24 05:15:59;;;;;;;11.48;3.90;;;;;;;;;;5018781;28;20806;-73
2021/04/24 05:18:25;;;;;;;11.23;3.70;;;;;;;;;;5023038;28;20037;-73
2021/04/24 05:20:51;;;;;;;5.72;2.95;;;;;;;;;;5011714;28;20049;-74
2021/04/24 05:23:17;;;;;;;7.95;3.05;;;;;;;;;;5023399;28;20030;-73
2021/04/24 05:25:43;;;;;;;9.65;3.05;;;;;;;;;;5026306;28;20446;-73
2021/04/24 05:28:08;;;;;;;16.17;4.05;;;;;;;;;;5017068;28;20037;-73
2021/04/24 05:30:34;;;;;;;8.65;2.78;;;;;;;;;;5016338;28;20026;-73
2021/04/24 05:33:00;;;;;;;6.57;2.70;;;;;;;;;;5020553;28;20034;-72
2021/04/24 05:35:26;;;;;;;6.82;3.20;;;;;;;;;;5028464;28;20025;-73
2021/04/24 05:37:52;;;;;;;6.75;3.35;;;;;;;;;;5015590;28;20080;-73
2021/04/24 05:40:18;;;;;;;7.55;3.15;;;;;;;;;;5021840;28;20033;-74
2021/04/24 05:42:44;;;;;;;10.48;4.30;;;;;;;;;;5019092;28;20420;-73
2021/04/24 05:45:12;;;;;;;9.95;3.38;;;;;;;;;;5027372;28;20025;-73
2021/04/24 05:47:39;;;;;;;8.10;3.83;;;;;;;;;;5018789;28;20025;-73
2021/04/24 05:50:06;;;;;;;10.65;4.30;;;;;;;;;;5012373;28;20034;-73
2021/04/24 05:52:31;;;;;;;14.82;3.67;;;;;;;;;;5019608;28;20049;-72
2021/04/24 05:54:57;;;;;;;8.02;3.80;;;;;;;;;;5020705;28;20033;-73
2021/04/24 05:57:23;;;;;;;9.35;3.80;;;;;;;;;;5016151;28;20022;-74
2021/04/24 05:59:49;;;;;;;10.75;4.20;;;;;;;;;;5017641;28;20029;-71
2021/04/24 06:02:15;;;;;;;9.57;3.80;;;;;;;;;;5021586;28;20108;-72
2021/04/24 06:04:41;;;;;;;16.40;3.70;;;;;;;;;;5011612;28;20041;-72
2021/04/24 06:07:07;;;;;;;9.65;3.28;;;;;;;;;;5024734;28;20009;-72
2021/04/24 06:09:34;;;;;;;13.55;4.00;;;;;;;;;;5014062;28;20129;-71
2021/04/24 06:12:00;;;;;;;12.15;3.80;;;;;;;;;;5013534;28;20064;-73
2021/04/24 06:14:26;;;;;;;9.35;3.95;;;;;;;;;;5020411;28;20448;-72
2021/04/24 06:16:52;;;;;;;8.80;3.70;;;;;;;;;;5016825;28;20048;-73
2021/04/24 06:19:18;;;;;;;14.07;3.83;;;;;;;;;;5009429;28;20046;-73
2021/04/24 06:21:44;;;;;;;11.52;4.13;;;;;;;;;;5018361;28;20128;-72
2021/04/24 06:24:10;;;;;;;7.82;3.35;;;;;;;;;;5006318;28;20598;-73
2021/04/24 06:26:36;;;;;;;8.35;3.70;;;;;;;;;;5021045;28;20060;-73
2021/04/24 06:29:02;;;;;;;8.55;3.50;;;;;;;;;;5023012;28;20045;-73
2021/04/24 06:31:28;;;;;;;8.75;3.63;;;;;;;;;;5018829;28;20086;-73
2021/04/24 06:33:54;;;;;;;12.32;3.72;;;;;;;;;;5021203;28;20471;-73
2021/04/24 06:36:20;;;;;;;7.10;3.28;;;;;;;;;;5023533;28;20037;-73
2021/04/24 06:38:46;;;;;;;5.53;3.00;;;;;;;;;;5023680;28;20079;-73
2021/04/24 06:41:15;;;;;;;8.30;3.17;;;;;;;;;;5023953;28;20061;-73
2021/04/24 06:43:41;;;;;;;14.52;3.47;;;;;;;;;;5021668;28;20033;-73
2021/04/24 06:46:07;;;;;;;7.50;3.47;;;;;;;;;;5015169;28;20561;-73
2021/04/24 06:48:33;;;;;;;8.18;3.83;;;;;;;;;;5021206;28;20025;-73
2021/04/24 06:51:00;;;;;;;11.15;3.42;;;;;;;;;;5025144;28;20488;-72
2021/04/24 06:53:26;;;;;;;10.02;3.58;;;;;;;;;;5019399;28;20080;-72
2021/04/24 06:55:54;;;;;;;9.93;3.97;;;;;;;;;;5019513;28;20034;-72
2021/04/24 06:58:20;;;;;;;9.27;3.78;;;;;;;;;;5007685;28;20507;-69
2021/04/24 07:00:46;;;;;;;6.90;2.92;;;;;;;;;;4993769;28;20036;-74
2021/04/24 07:03:12;;;;;;;9.10;3.72;;;;;;;;;;5013957;28;20037;-75
2021/04/24 07:05:38;;;;;;;9.23;3.50;;;;;;;;;;5010680;28;20042;-73
2021/04/24 07:08:04;;;;;;;6.82;3.15;;;;;;;;;;5014913;28;20559;-73
2021/04/24 07:10:30;;;;;;;7.82;3.30;;;;;;;;;;5018572;28;20026;-73
2021/04/24 07:12:56;;;;;;;10.85;2.97;;;;;;;;;;5023915;28;20033;-73
2021/04/24 07:15:22;;;;;;;6.47;2.83;;;;;;;;;;5018511;28;20021;-72
2021/04/24 07:17:48;;;;;;;11.90;3.17;;;;;;;;;;5002221;28;20026;-72
2021/04/24 07:20:18;;;;;;;10.48;3.05;;;;;;;;;;5017799;28;20033;-71
2021/04/24 07:22:44;;;;;;;9.00;2.97;;;;;;;;;;5015945;28;20229;-74
2021/04/24 07:25:10;;;;;;;5.20;2.70;;;;;;;;;;5017431;28;20048;-75
2021/04/24 07:27:37;;;;;;;7.95;2.35;;;;;;;;;;5013754;28;20026;-73
2021/04/24 07:30:05;;;;;;;4.75;2.47;;;;;;;;;;5010017;28;20026;-72
2021/04/24 07:32:31;;;;;;;4.07;2.42;;;;;;;;;;5014263;28;20036;-71
2021/04/24 07:34:57;;;;;;;13.45;2.70;;;;;;;;;;5018332;28;20025;-73
2021/04/24 07:37:23;;;;;;;13.10;3.22;;;;;;;;;;4997979;28;20079;-72
2021/04/24 07:39:49;;;;;;;8.05;3.42;;;;;;;;;;5013402;28;20408;-74
2021/04/24 07:42:16;;;;;;;7.88;3.03;;;;;;;;;;5017856;28;20014;-72
2021/04/24 07:44:42;;;;;;;5.40;2.50;;;;;;;;;;5014992;28;20036;-71
2021/04/24 07:47:08;;;;;;;7.05;2.50;;;;;;;;;;5017226;28;20124;-73
2021/04/24 07:49:35;;;;;;;4.25;1.88;;;;;;;;;;5014249;28;20172;-73
2021/04/24 07:52:02;;;;;;;5.65;2.40;;;;;;;;;;5018055;28;20033;-74
2021/04/24 07:54:29;;;;;;;6.90;2.25;;;;;;;;;;5020121;28;20036;-73
2021/04/24 07:56:56;;;;;;;14.10;2.33;;;;;;;;;;5014033;28;20036;-74
2021/04/24 07:59:22;;;;;;;5.18;2.30;;;;;;;;;;5014003;28;20048;-75
2021/04/24 08:01:48;;;;;;;5.82;2.40;;;;;;;;;;5009612;28;20681;-75
2021/04/24 08:04:14;;;;;;;6.22;2.03;;;;;;;;;;5011574;28;20477;-73
2021/04/24 08:06:39;;;;;;;7.35;2.22;;;;;;;;;;5013566;28;20043;-74
2021/04/24 08:09:06;;;;;;;7.28;2.95;;;;;;;;;;5019420;28;20049;-74
2021/04/24 08:11:32;;;;;;;3.58;1.73;;;;;;;;;;5014006;28;20018;-74
2021/04/24 08:13:58;;;;;;;9.27;2.08;;;;;;;;;;5016871;28;20041;-73
2021/04/24 08:16:24;;;;;;;5.32;2.67;;;;;;;;;;5013332;28;20431;-73
2021/04/24 08:18:50;;;;;;;5.20;2.33;;;;;;;;;;5013745;28;20030;-74
2021/04/24 08:21:16;;;;;;;9.85;3.05;;;;;;;;;;5016140;28;20080;-74
2021/04/24 08:23:43;;;;;;;3.20;2.00;;;;;;;;;;5009670;28;20038;-73
2021/04/24 08:26:09;;;;;;;4.68;2.40;;;;;;;;;;5014622;28;20021;-74
2021/04/24 08:28:35;;;;;;;5.40;3.20;;;;;;;;;;5025017;28;20021;-74
2021/04/24 08:31:01;;;;;;;5.45;2.38;;;;;;;;;;5022779;28;20030;-73
2021/04/24 08:33:27;;;;;;;5.85;3.00;;;;;;;;;;5022454;28;20108;-73
2021/04/24 08:35:53;;;;;;;9.38;3.90;;;;;;;;;;5023368;28;20025;-74
2021/04/24 08:38:19;;;;;;;5.00;2.40;;;;;;;;;;5019243;28;20025;-74
2021/04/24 08:40:45;;;;;;;2.70;1.65;;;;;;;;;;5012159;28;20034;-73
2021/04/24 08:43:11;;;;;;;4.32;1.75;;;;;;;;;;5014642;28;20040;-73
2021/04/24 08:45:37;;;;;;;3.38;1.65;;;;;;;;;;5015838;28;20017;-71
2021/04/24 08:48:03;;;;;;;4.97;1.80;;;;;;;;;;5006397;28;20410;-73
2021/04/24 08:50:31;;;;;;;6.13;1.50;;;;;;;;;;5010387;28;20088;-73
2021/04/24 08:52:58;;;;;;;6.60;1.90;;;;;;;;;;5018948;28;20033;-72
2021/04/24 08:55:26;;;;;;;3.35;1.58;;;;;;;;;;5016832;28;20041;-72
2021/04/24 08:57:52;;;;;;;4.47;2.30;;;;;;;;;;5014403;28;20040;-71
2021/04/24 09:00:20;;;;;;;3.58;2.00;;;;;;;;;;5018051;28;20033;-71
2021/04/24 09:02:47;;;;;;;2.45;1.63;;;;;;;;;;5019207;28;20022;-72
2021/04/24 09:05:14;;;;;;;5.18;2.55;;;;;;;;;;5011471;28;20018;-72
2021/04/24 09:07:40;;;;;;;4.15;2.17;;;;;;;;;;5011259;28;20478;-72
2021/04/24 09:10:07;;;;;;;5.93;2.33;;;;;;;;;;5011868;28;20472;-71
2021/04/24 09:12:37;;;;;;;7.03;1.80;;;;;;;;;;5015450;28;20026;-75
2021/04/24 09:15:17;;;;;;;3.78;2.28;;;;;;;;;;5017007;28;20033;-73
2021/04/24 09:18:00;;;;;;;7.13;2.25;;;;;;;;;;5022730;28;20036;-73
2021/04/24 09:20:30;;;;;;;6.60;2.17;;;;;;;;;;5009938;28;20061;-73
2021/04/24 09:23:04;;;;;;;6.80;2.47;;;;;;;;;;5022155;28;20424;-73
2021/04/24 09:25:34;;;;;;;5.50;2.15;;;;;;;;;;5020992;28;20060;-73
2021/04/24 09:28:00;;;;;;;5.45;1.98;;;;;;;;;;5012538;28;20552;-72
2021/04/24 09:30:31;;;;;;;7.32;2.38;;;;;;;;;;5018964;28;20054;-72
2021/04/24 09:33:15;;;;;;;4.10;2.05;;;;;;;;;;5015764;28;20032;-73
2021/04/24 09:35:46;;;;;;;4.18;2.10;;;;;;;;;;5019293;28;20034;-73
2021/04/24 09:38:17;;;;;;;5.70;2.47;;;;;;;;;;5013894;28;20084;-72
2021/04/24 09:40:48;;;;;;;3.20;1.70;;;;;;;;;;5010969;28;20483;-72
2021/04/24 09:43:14;;;;;;;5.20;2.05;;;;;;;;;;5018858;28;20037;-72
2021/04/24 09:45:42;;;;;;;8.10;2.63;;;;;;;;;;5017885;28;20036;-72
2021/04/24 09:48:26;;;;;;;5.85;2.00;;;;;;;;;;5020379;28;20029;-71
2021/04/24 09:50:52;;;;;;;3.80;2.20;;;;;;;;;;5019300;28;20037;-72
2021/04/24 09:53:23;;;;;;;3.20;1.85;;;;;;;;;;5019651;28;20033;-72
2021/04/24 09:55:50;;;;;;;4.28;1.73;;;;;;;;;;5021970;28;20033;-73
2021/04/24 09:58:32;;;;;;;3.38;1.77;;;;;;;;;;5019709;28;20060;-72
2021/04/24 10:00:59;;;;;;;3.10;1.67;;;;;;;;;;5018242;28;20033;-73
2021/04/24 10:03:38;;;;;;;6.65;2.15;;;;;;;;;;5013406;28;20030;-72
2021/04/24 10:06:22;;;;;;;4.15;1.70;;;;;;;;;;5014638;28;20036;-73
2021/04/24 10:08:49;;;;;;;7.65;2.35;;;;;;;;;;5013745;28;20026;-70
2021/04/24 10:11:28;;;;;;;6.43;2.28;;;;;;;;;;5022248;28;20037;-71
2021/04/24 10:13:54;;;;;;;3.72;1.85;;;;;;;;;;5016994;28;20425;-72
2021/04/24 10:16:33;;;;;;;4.25;1.75;;;;;;;;;;5015687;28;20164;-72
2021/04/24 10:19:01;;;;;;;3.35;1.60;;;;;;;;;;5020644;28;20022;-73
2021/04/24 10:21:29;;;;;;;3.08;1.88;;;;;;;;;;5013923;28;20488;-72
2021/04/24 10:23:55;;;;;;;7.07;1.92;;;;;;;;;;5015887;28;20030;-72
2021/04/24 10:26:21;;;;;;;4.72;1.95;;;;;;;;;;5017866;28;20040;-72
2021/04/24 10:28:47;;;;;;;3.42;1.85;;;;;;;;;;5020862;28;20029;-79
2021/04/24 10:31:13;;;;;;;3.90;2.15;;;;;;;;;;5013252;28;20081;-75
2021/04/24 10:33:40;;;;;;;3.53;2.10;;;;;;;;;;5020062;28;20061;-74
2021/04/24 10:36:09;;;;;;;5.75;1.92;;;;;;;;;;5016830;28;20041;-74
2021/04/24 10:38:35;;;;;;;4.18;1.67;;;;;;;;;;5016344;28;20914;-74
2021/04/24 10:41:02;;;;;;;7.00;2.10;;;;;;;;;;5025469;28;20022;-74
2021/04/24 10:43:28;;;;;;;8.07;1.95;;;;;;;;;;5029282;28;20056;-74
2021/04/24 10:45:54;;;;;;;7.20;2.40;;;;;;;;;;5028590;28;20075;-74
2021/04/24 10:48:23;;;;;;;4.25;1.55;;;;;;;;;;5025941;28;20543;-78
2021/04/24 10:50:49;;;;;;;8.55;1.77;;;;;;;;;;5016965;28;20607;-73
2021/04/24 10:53:23;;;;;;;5.68;1.98;;;;;;;;;;5020691;28;20071;-74
2021/04/24 10:55:49;;;;;;;5.28;2.15;;;;;;;;;;5025071;28;20025;-74
2021/04/24 10:58:19;;;;;;;2.67;1.98;;;;;;;;;;5018969;28;20392;-73
2021/04/24 11:00:47;;;;;;;3.25;1.88;;;;;;;;;;5020764;28;20036;-74
2021/04/24 11:03:33;;;;;;;4.63;1.90;;;;;;;;;;5023599;28;20060;-75
2021/04/24 11:06:16;;;;;;;3.80;1.67;;;;;;;;;;5017839;28;20384;-74
2021/04/24 11:08:44;;;;;;;6.78;2.15;;;20.80;30.80;;;;;;5018502;28;20498;-78
2021/04/24 11:11:15;;;;;;;8.82;3.60;;;13.10;59.40;;;;;;5016340;28;20392;-78
2021/04/24 11:13:43;;;;;;;8.20;1.65;;;13.10;59.00;;;;;;5018602;28;20037;-80
2021/04/24 11:16:12;;;;;;;4.88;2.00;;;13.20;57.10;;;;;;5015876;28;20492;-78
2021/04/24 11:18:40;;;;;;;5.07;2.05;;;13.40;58.00;;;;;;5017960;28;20034;-75
2021/04/24 11:21:08;;;;;;;3.47;1.63;;;13.60;56.20;;;;;;5027259;28;20044;-76
2021/04/24 11:23:34;;;;;;;7.22;2.67;;;13.50;55.70;;;;;;5019021;28;20041;-75
2021/04/24 11:26:21;;;;;;;4.57;2.13;;;13.10;55.80;;;;;;5026537;28;20037;-76
2021/04/24 11:29:30;;;;;;;5.57;3.20;;;12.80;58.60;;;;;;5019938;28;20060;-76
2021/04/24 11:31:59;;;;;;;4.80;2.38;;;12.50;58.40;;;;;;4967313;28;20064;-80
2021/04/24 11:34:32;;;;;;;3.97;1.70;;;12.40;57.90;;;;;;5001656;28;20915;-76
2021/04/24 11:37:17;;;;;;;2.92;1.20;;;12.60;57.50;;;;;;5026300;28;20488;-79
2021/04/24 11:40:27;;;;;;;4.60;1.83;;;12.80;58.20;;;;;;5022600;28;20049;-76
2021/04/24 11:42:56;;;;;;;2.53;1.50;;;13.20;57.90;;;;;;5022899;28;20543;-77
2021/04/24 11:45:46;;;;;;;3.28;1.40;;;13.60;54.40;;;;;;5020548;28;20033;-80
2021/04/24 11:48:12;;;;;;;7.43;1.70;;;13.50;52.50;;;;;;5020459;28;20049;-77
2021/04/24 11:50:40;;;;;;;4.88;1.80;;;13.30;52.90;;;;;;5016952;28;20799;-78
2021/04/24 11:53:07;;;;;;;3.53;2.03;;;13.10;54.50;;;;;;5015701;28;20485;-73
2021/04/24 11:55:32;;;;;;;7.68;2.03;;;12.90;56.40;;;;;;5020947;28;20694;-76
2021/04/24 11:58:10;;;;;;;3.85;1.75;;;12.80;56.20;;;;;;5027999;28;20033;-78
2021/04/24 12:00:37;;;;;;;3.58;1.90;;;13.80;56.40;;;;;;5021179;28;20121;-77
2021/04/24 12:03:04;;;;;;;18.42;1.85;;;16.10;53.90;;;;;;5026416;28;20033;-76
2021/04/24 12:05:30;;;;;;;2.65;1.35;;;18.30;47.30;;;;;;5025573;28;20057;-77
2021/04/24 12:07:56;;;;;;;2.75;1.50;;;19.00;44.10;;;;;;5013975;28;20361;-79
2021/04/24 12:10:29;;;;;;;4.85;1.40;;;18.70;43.00;;;;;;5017296;28;20075;-77
2021/04/24 12:13:07;;;;;;;14.23;2.00;;;18.80;44.30;;;;;;5019212;28;20018;-77
2021/04/24 12:15:33;;;;;;;3.08;1.85;;;18.90;42.00;;;;;;5022226;28;20128;-77
2021/04/24 12:18:01;;;;;;;4.20;1.92;;;18.20;42.10;;;;;;5025453;28;20537;-75
2021/04/24 12:20:38;;;;;;;2.65;1.45;;;17.30;44.80;;;;;;5022459;28;20056;-77
2021/04/24 12:23:06;;;;;;;3.47;1.48;;;16.40;47.00;;;;;;5020650;28;20113;-75
2021/04/24 12:25:33;;;;;;;2.75;1.23;;;15.70;48.70;;;;;;5019971;28;20248;-76
2021/04/24 12:28:03;;;;;;;5.10;2.30;;;15.10;49.50;;;;;;5016046;28;20482;-76
2021/04/24 12:30:34;;;;;;;3.45;1.55;;;14.90;48.90;;;;;;5015133;28;20051;-84
2021/04/24 12:33:14;;;;;;;4.55;1.33;;;14.70;50.30;;;;;;5017661;28;20069;-75
2021/04/24 12:35:47;;;;;;;5.93;2.22;;;14.70;50.00;;;;;;5023398;28;20064;-81
2021/04/24 12:38:17;;;;;;;5.88;1.95;;;15.00;49.00;;;;;;5016692;28;20116;-79
2021/04/24 12:40:47;;;;;;;2.33;1.40;;;15.00;48.60;;;;;;5022533;28;20105;-77
2021/04/24 12:43:20;;;;;;;3.92;1.50;;;14.90;48.30;;;;;;5006220;28;20108;-76
2021/04/24 12:45:47;;;;;;;2.13;1.20;;;15.50;47.60;;;;;;5021645;28;20029;-75
2021/04/24 12:48:15;;;;;;;1.33;1.10;;;18.10;44.60;;;;;;5026021;28;20091;-76
2021/04/24 12:50:42;;;;;;;5.68;1.38;;;19.40;39.70;;;;;;5021476;28;20072;-75
2021/04/24 12:53:13;;;;;;;3.42;1.25;;;19.10;39.30;;;;;;5024410;28;20096;-75
2021/04/24 12:55:47;;;;;;;4.22;1.60;;;18.10;40.40;;;;;;5013999;28;20077;-75
2021/04/24 12:58:14;;;;;;;3.85;1.73;;;16.80;42.40;;;;;;5023232;28;20048;-75
2021/04/24 13:00:47;;;;;;;4.13;2.03;;;16.20;44.50;;;;;;5014043;28;20404;-75
2021/04/24 13:03:21;;;;;;;3.05;1.27;;;15.70;45.50;;;;;;5017386;28;20566;-74
2021/04/24 13:05:46;;;;;;;1.95;1.50;;;14.90;46.00;;;;;;5018223;28;20255;-75
2021/04/24 13:08:12;;;;;;;4.15;1.58;;;14.40;47.00;;;;;;5023962;28;20033;-75
2021/04/24 13:10:40;;;;;;;8.27;2.10;;;14.30;48.30;;;;;;5020411;28;20030;-74
2021/04/24 13:13:06;;;;;;;3.75;1.65;;;14.10;48.00;;;;;;5009580;28;20040;-75
2021/04/24 13:15:41;;;;;;;1.35;1.08;;;14.00;47.80;;;;;;5014445;28;20038;-75
2021/04/24 13:18:22;;;;;;;2.72;1.10;;;13.90;47.60;;;;;;5010146;28;20049;-75
2021/04/24 13:20:47;;;;;;;2.95;1.55;;;14.30;48.40;;;;;;5025259;28;20031;-74
2021/04/24 13:23:14;;;;;;;3.08;1.35;;;16.20;46.60;;;;;;5029729;28;20030;-75
2021/04/24 13:25:39;;;;;;;2.72;1.30;;;17.00;43.10;;;;;;5010997;28;20144;-75
2021/04/24 13:28:05;;;;;;;8.00;1.50;;;16.50;43.80;;;;;;5008657;28;20649;-75
2021/04/24 13:30:42;;;;;;;3.70;1.42;;;16.10;44.20;;;;;;5023608;28;20021;-75
2021/04/24 13:33:09;;;;;;;2.65;1.52;;;16.10;44.10;;;;;;5021965;28;20036;-73
2021/04/24 13:35:49;;;;;;;3.83;1.98;;;15.90;45.20;;;;;;5023527;28;20456;-73
2021/04/24 13:38:19;;;;;;;2.85;1.38;;;15.90;44.20;;;;;;5010995;28;20510;-73
2021/04/24 13:40:46;;;;;;;2.42;1.67;;;15.90;43.90;;;;;;5007868;28;20034;-74
2021/04/24 13:43:28;;;;;;;1.38;1.10;;;15.80;46.90;;;;;;5021339;28;20104;-73
2021/04/24 13:45:54;;;;;;;2.88;1.40;;;15.60;45.00;;;;;;5014656;28;20030;-75
2021/04/24 13:48:30;;;;;;;1.15;0.93;;;15.40;46.20;;;;;;5022737;28;20022;-75
2021/04/24 13:50:56;;;;;;;1.60;1.08;;;15.30;47.20;;;;;;5015315;28;20045;-75
2021/04/24 13:53:22;;;;;;;4.50;2.15;;;16.30;46.40;;;;;;5014571;28;20087;-76
2021/04/24 13:55:48;;;;;;;4.72;1.95;;;17.40;42.80;;;;;;5020092;28;20033;-76
2021/04/24 13:58:16;;;;;;;20.02;8.75;;;17.40;40.20;;;;;;5021841;28;20036;-75
2021/04/24 14:00:45;;;;;;;5.25;1.50;;;17.00;40.90;;;;;;5018990;28;20045;-73
2021/04/24 14:03:11;;;;;;;4.15;1.67;;;16.40;41.30;;;;;;5012733;28;20369;-73
2021/04/24 14:05:37;;;;;;;11.02;6.38;;;15.80;44.00;;;;;;5019483;28;20743;-74
2021/04/24 14:08:03;;;;;;;4.55;2.85;;;15.50;43.30;;;;;;5013454;28;20021;-74
2021/04/24 14:10:28;;;;;;;3.67;1.85;;;15.40;45.40;;;;;;5022057;28;20022;-75
2021/04/24 14:12:55;;;;;;;4.43;2.00;;;15.20;45.50;;;;;;5025714;28;20022;-76
2021/04/24 14:15:21;;;;;;;6.45;3.45;;;15.10;45.10;;;;;;5021698;28;20060;-77
2021/04/24 14:17:46;;;;;;;5.07;1.65;;;14.90;45.80;;;;;;5021973;28;20059;-77